Time;durP1;ratioP1;P1;durP2;ratioP2;P2;SDS_P1;SDS_P2;PMS_P1;PMS_P2;Temp;Humidity;BMP_temperature;BMP_pressure;BME280_temperature;BME280_humidity;BME280_pressure;Samples;Min_cycle;Max_cycle;Signal;HPM_P1;HPM_P2
2022/07/12 00:01:58;;;;;;;;;;;;;;;23.89;100.00;99510.38;5073892;28;19954;-81
2022/07/12 00:04:25;;;;;;;;;;;;;;;24.15;100.00;99516.09;5073917;28;19920;-81
2022/07/12 00:06:53;;;;;;;;;;;;;;;24.22;100.00;99519.28;5072543;28;19955;-81
2022/07/12 00:09:20;;;;;;;;;;;;;;;24.47;100.00;99517.69;5073785;28;20434;-81
2022/07/12 00:11:47;;;;;;;;;;;;;;;24.30;100.00;99519.59;5073688;28;20311;-81
2022/07/12 00:14:14;;;;;;;;;;;;;;;24.17;100.00;99522.84;5072220;28;19924;-81
2022/07/12 00:16:41;;;;;;;;;;;;;;;24.24;100.00;99522.41;5072156;28;19958;-81
2022/07/12 00:19:09;;;;;;;;;;;;;;;24.29;100.00;99526.63;5073558;28;20007;-81
2022/07/12 00:21:36;;;;;;;;;;;;;;;24.33;100.00;99524.31;5089134;28;19928;-81
2022/07/12 00:24:03;;;;;;;;;;;;;;;24.19;100.00;99528.06;5055906;28;20058;-81
2022/07/12 00:26:30;;;;;;;;;;;;;;;24.16;100.00;99531.94;5073414;28;19921;-81
2022/07/12 00:28:57;;;;;;;;;;;;;;;23.95;100.00;99531.22;5073184;28;20293;-81
2022/07/12 00:31:25;;;;;;;;;;;;;;;24.05;100.00;99534.69;5073416;28;20010;-81
2022/07/12 00:33:52;;;;;;;;;;;;;;;24.03;100.00;99531.56;5073286;28;19920;-81
2022/07/12 00:36:19;;;;;;;;;;;;;;;23.96;100.00;99521.38;5073463;28;19920;-81
2022/07/12 00:38:47;;;;;;;;;;;;;;;23.56;100.00;99520.63;5072127;28;20027;-81
2022/07/12 00:41:15;;;;;;;;;;;;;;;23.79;100.00;99505.34;5073235;28;19920;-81
2022/07/12 00:43:42;;;;;;;;;;;;;;;23.94;100.00;99511.72;5072965;28;19928;-81
2022/07/12 00:46:10;;;;;;;;;;;;;;;23.96;100.00;99509.19;5073096;28;20375;-81
2022/07/12 00:48:37;;;;;;;;;;;;;;;23.72;100.00;99502.94;5072067;28;19921;-81
2022/07/12 00:51:04;;;;;;;;;;;;;;;23.01;100.00;99506.44;5071986;28;19920;-81
2022/07/12 00:53:31;;;;;;;;;;;;;;;22.43;100.00;99500.91;5071965;28;19927;-81
2022/07/12 00:55:59;;;;;;;;;;;;;;;22.61;100.00;99498.59;5072778;28;19920;-81
2022/07/12 00:58:27;;;;;;;;;;;;;;;23.15;100.00;99494.19;5071396;28;19921;-81
2022/07/12 01:00:56;;;;;;;;;;;;;;;23.35;100.00;99501.97;5071867;28;19963;-81
2022/07/12 01:03:23;;;;;;;;;;;;;;;23.37;100.00;99499.41;5071706;28;19921;-81
2022/07/12 01:05:50;;;;;;;;;;;;;;;23.38;100.00;99498.91;5072987;28;19959;-81
2022/07/12 01:08:21;;;;;;;;;;;;;;;23.36;100.00;99501.47;5071798;28;19924;-81
2022/07/12 01:10:49;;;;;;;;;;;;;;;22.87;100.00;99502.34;5071101;28;20291;-81
2022/07/12 01:13:18;;;;;;;;;;;;;;;22.84;100.00;99509.06;5071517;28;19982;-81
2022/07/12 01:15:46;;;;;;;;;;;;;;;23.09;100.00;99502.69;5072757;28;20283;-81
2022/07/12 01:18:14;;;;;;;;;;;;;;;23.03;100.00;99504.66;5071593;28;19920;-81
2022/07/12 01:20:43;;;;;;;;;;;;;;;23.02;100.00;99503.09;5072862;28;20303;-81
2022/07/12 01:23:11;;;;;;;;;;;;;;;22.50;100.00;99495.59;5071634;28;20287;-81
2022/07/12 01:25:38;;;;;;;;;;;;;;;22.83;100.00;99495.31;5071327;28;19921;-80
2022/07/12 01:28:05;;;;;;;;;;;;;;;22.51;100.00;99505.72;5072810;28;19920;-81
2022/07/12 01:30:32;;;;;;;;;;;;;;;22.02;100.00;99499.97;5072740;28;20314;-81
2022/07/12 01:33:00;;;;;;;;;;;;;;;21.96;100.00;99503.97;5071580;28;19963;-81
2022/07/12 01:35:28;;;;;;;;;;;;;;;22.13;100.00;99493.69;5071574;28;20019;-81
2022/07/12 01:37:56;;;;;;;;;;;;;;;22.56;100.00;99492.84;5071365;28;19920;-81
2022/07/12 01:40:23;;;;;;;;;;;;;;;22.74;100.00;99493.38;5072304;28;19927;-81
2022/07/12 01:42:51;;;;;;;;;;;;;;;22.55;100.00;99494.88;5105247;28;19921;-81
2022/07/12 01:45:18;;;;;;;;;;;;;;;22.23;100.00;99495.91;5072614;28;20418;-81
2022/07/12 01:47:45;;;;;;;;;;;;;;;22.43;100.00;99510.19;5088069;28;19920;-80
2022/07/12 01:50:12;;;;;;;;;;;;;;;22.23;100.00;99504.47;5072502;28;20047;-81
2022/07/12 01:52:40;;;;;;;;;;;;;;;22.63;100.00;99515.19;5071349;28;19921;-81
2022/07/12 01:55:08;;;;;;;;;;;;;;;22.58;100.00;99513.06;5071017;28;20303;-81
2022/07/12 01:57:35;;;;;;;;;;;;;;;22.48;100.00;99515.22;5072415;28;20363;-81
2022/07/12 02:00:04;;;;;;;;;;;;;;;22.17;100.00;99520.66;5072546;28;19926;-81
2022/07/12 02:02:32;;;;;;;;;;;;;;;22.34;100.00;99527.41;5072478;28;19928;-81
2022/07/12 02:05:00;;;;;;;;;;;;;;;22.62;100.00;99517.28;5071018;28;19926;-81
2022/07/12 02:07:27;;;;;;;;;;;;;;;22.74;100.00;99515.38;5071138;28;19920;-81
2022/07/12 02:09:54;;;;;;;;;;;;;;;22.70;100.00;99509.88;5058030;28;19967;-81
2022/07/12 02:12:21;;;;;;;;;;;;;;;22.79;100.00;99512.63;5076072;28;19965;-81
2022/07/12 02:14:49;;;;;;;;;;;;;;;22.93;100.00;99511.75;5074814;28;19982;-80
2022/07/12 02:17:16;;;;;;;;;;;;;;;23.09;100.00;99507.59;5074460;28;20394;-81
2022/07/12 02:19:44;;;;;;;;;;;;;;;23.16;100.00;99500.69;5058380;28;19921;-81
2022/07/12 02:22:11;;;;;;;;;;;;;;;23.24;100.00;99508.31;5075883;28;19921;-80
2022/07/12 02:24:38;;;;;;;;;;;;;;;23.43;100.00;99508.81;5075631;28;19924;-80
2022/07/12 02:27:06;;;;;;;;;;;;;;;23.61;100.00;99508.50;5074677;28;19920;-81
2022/07/12 02:29:33;;;;;;;;;;;;;;;23.41;100.00;99511.38;5074563;28;19921;-81
2022/07/12 02:32:00;;;;;;;;;;;;;;;23.46;100.00;99500.03;5075590;28;20389;-81
2022/07/12 02:34:28;;;;;;;;;;;;;;;23.79;100.00;99508.19;5057810;28;19920;-80
2022/07/12 02:36:55;;;;;;;;;;;;;;;23.85;100.00;99498.41;5074363;28;20379;-80
2022/07/12 02:39:22;;;;;;;;;;;;;;;23.85;100.00;99500.47;5075250;28;20387;-80
2022/07/12 02:41:49;;;;;;;;;;;;;;;23.85;100.00;99497.63;5075418;28;19920;-80
2022/07/12 02:44:17;;;;;;;;;;;;;;;23.90;100.00;99488.34;5075470;28;19920;-80
2022/07/12 02:46:44;;;;;;;;;;;;;;;24.01;100.00;99479.88;5074215;28;19927;-80
2022/07/12 02:49:11;;;;;;;;;;;;;;;23.98;100.00;99492.31;5075433;28;19920;-80
2022/07/12 02:51:38;;;;;;;;;;;;;;;24.16;100.00;99486.25;5075315;28;19924;-81
2022/07/12 02:54:05;;;;;;;;;;;;;;;24.07;100.00;99475.81;5073834;28;19927;-81
2022/07/12 02:56:32;;;;;;;;;;;;;;;24.19;100.00;99474.63;5074101;28;20379;-80
2022/07/12 02:59:01;;;;;;;;;;;;;;;24.19;100.00;99468.91;5075117;28;20344;-80
2022/07/12 03:01:28;;;;;;;;;;;;;;;24.25;100.00;99484.00;5075198;28;20295;-80
2022/07/12 03:03:55;;;;;;;;;;;;;;;24.27;100.00;99483.50;5075074;28;20272;-80
2022/07/12 03:06:22;;;;;;;;;;;;;;;23.98;100.00;99486.59;5074916;28;20405;-80
2022/07/12 03:08:54;;;;;;;;;;;;;;;23.90;100.00;99485.50;5074850;28;19924;-80
2022/07/12 03:11:27;;;;;;;;;;;;;;;23.92;100.00;99488.59;5073829;28;19927;-80
2022/07/12 03:13:54;;;;;;;;;;;;;;;23.76;100.00;99480.66;5057132;28;20333;-81
2022/07/12 03:16:21;;;;;;;;;;;;;;;23.88;100.00;99488.06;5073384;28;19927;-80
2022/07/12 03:18:48;;;;;;;;;;;;;;;23.92;100.00;99483.69;5074706;28;20386;-81
2022/07/12 03:21:16;;;;;;;;;;;;;;;24.04;100.00;99487.44;5074813;28;19920;-80
2022/07/12 03:23:44;;;;;;;;;;;;;;;23.92;100.00;99477.19;5073296;28;19920;-81
2022/07/12 03:26:12;;;;;;;;;;;;;;;23.94;100.00;99488.88;5074490;28;19990;-80
2022/07/12 03:28:39;;;;;;;;;;;;;;;23.99;100.00;99494.66;5107258;28;20327;-80
2022/07/12 03:31:07;;;;;;;;;;;;;;;23.98;100.00;99486.59;5074795;28;20003;-80
2022/07/12 03:33:35;;;;;;;;;;;;;;;24.08;100.00;99485.16;5073309;28;19920;-80
2022/07/12 03:36:03;;;;;;;;;;;;;;;24.26;100.00;99487.66;5074180;28;19952;-81
2022/07/12 03:38:31;;;;;;;;;;;;;;;24.23;100.00;99492.31;5073069;28;20011;-80
2022/07/12 03:40:58;;;;;;;;;;;;;;;24.31;100.00;99479.13;5056696;28;19947;-81
2022/07/12 03:43:25;;;;;;;;;;;;;;;24.21;100.00;99482.66;5074331;28;20375;-81
2022/07/12 03:45:52;;;;;;;;;;;;;;;24.27;100.00;99472.88;5074270;28;19920;-80
2022/07/12 03:48:19;;;;;;;;;;;;;;;24.19;100.00;99462.41;5074210;28;19928;-80
2022/07/12 03:50:47;;;;;;;;;;;;;;;24.17;100.00;99459.28;5072685;28;19921;-81
2022/07/12 03:53:15;;;;;;;;;;;;;;;24.14;100.00;99454.59;5074008;28;20383;-80
2022/07/12 03:55:42;;;;;;;;;;;;;;;24.17;100.00;99457.19;5089921;28;19943;-79
2022/07/12 03:58:09;;;;;;;;;;;;;;;24.04;100.00;99467.47;5073943;28;19924;-80
2022/07/12 04:00:37;;;;;;;;;;;;;;;24.08;100.00;99463.09;5073989;28;19920;-80
2022/07/12 04:03:05;;;;;;;;;;;;;;;24.10;100.00;99459.72;5089884;28;19927;-79
2022/07/12 04:05:32;;;;;;;;;;;;;;;24.16;100.00;99452.78;5073434;28;19930;-79
2022/07/12 04:08:01;;;;;;;;;;;;;;;24.19;100.00;99456.69;5055891;28;19924;-79
2022/07/12 04:10:29;;;;;;;;;;;;;;;23.97;100.00;99440.19;5073676;28;19927;-79
2022/07/12 04:12:56;;;;;;;;;;;;;;;23.92;100.00;99449.44;5056249;28;20386;-79
2022/07/12 04:15:23;;;;;;;;;;;;;;;23.93;100.00;99445.28;5073494;28;19920;-79
2022/07/12 04:17:52;;;;;;;;;;;;;;;24.02;100.00;99441.53;5071683;28;21318;-79
2022/07/12 04:20:20;;;;;;;;;;;;;;;23.96;100.00;99450.00;5071864;28;20357;-79
2022/07/12 04:22:47;;;;;;;;;;;;;;;23.95;100.00;99437.03;5073537;28;20375;-79
2022/07/12 04:25:14;;;;;;;;;;;;;;;23.87;100.00;99424.47;5073480;28;19925;-79
2022/07/12 04:27:41;;;;;;;;;;;;;;;23.96;100.00;99426.41;5073355;28;19925;-79
2022/07/12 04:30:08;;;;;;;;;;;;;;;23.91;100.00;99432.81;5073480;28;19966;-79
2022/07/12 04:32:35;;;;;;;;;;;;;;;23.58;100.00;99446.78;5073064;28;19968;-79
2022/07/12 04:35:03;;;;;;;;;;;;;;;23.63;100.00;99448.91;5071874;28;19924;-79
2022/07/12 04:37:30;;;;;;;;;;;;;;;23.81;100.00;99455.03;5073309;28;20399;-79
2022/07/12 04:39:57;;;;;;;;;;;;;;;23.67;100.00;99455.94;5072019;28;19932;-79
2022/07/12 04:42:24;;;;;;;;;;;;;;;23.75;100.00;99457.03;5071944;28;19925;-80
2022/07/12 04:44:51;;;;;;;;;;;;;;;23.96;100.00;99463.53;5073191;28;19931;-80
2022/07/12 04:47:18;;;;;;;;;;;;;;;24.07;100.00;99467.25;5072013;28;20498;-80
2022/07/12 04:49:46;;;;;;;;;;;;;;;24.01;100.00;99468.47;5071682;28;20015;-80
2022/07/12 04:52:13;;;;;;;;;;;;;;;23.91;100.00;99469.91;5071905;28;20398;-80
2022/07/12 04:54:40;;;;;;;;;;;;;;;23.88;100.00;99470.94;5071996;28;19928;-80
2022/07/12 04:57:07;;;;;;;;;;;;;;;23.74;100.00;99466.09;5071907;28;20062;-80
2022/07/12 04:59:34;;;;;;;;;;;;;;;23.87;100.00;99475.09;5055264;28;19931;-80
2022/07/12 05:02:01;;;;;;;;;;;;;;;23.56;100.00;99460.75;5071726;28;20013;-80
2022/07/12 05:04:31;;;;;;;;;;;;;;;23.80;100.00;99466.94;5071913;28;19955;-80
2022/07/12 05:06:58;;;;;;;;;;;;;;;23.63;100.00;99471.72;5072895;28;20031;-80
2022/07/12 05:09:25;;;;;;;;;;;;;;;23.78;100.00;99461.00;5072996;28;19956;-80
2022/07/12 05:11:52;;;;;;;;;;;;;;;23.79;100.00;99456.84;5071751;28;19931;-80
2022/07/12 05:14:19;;;;;;;;;;;;;;;23.90;100.00;99449.16;5071686;28;19924;-80
2022/07/12 05:16:46;;;;;;;;;;;;;;;24.02;100.00;99461.50;5054929;28;19959;-80
2022/07/12 05:19:15;;;;;;;;;;;;;;;23.93;100.00;99467.34;5072557;28;19924;-79
2022/07/12 05:21:42;;;;;;;;;;;;;;;23.88;100.00;99459.50;5071725;28;19931;-79
2022/07/12 05:24:10;;;;;;;;;;;;;;;23.87;100.00;99463.66;5071621;28;19928;-80
2022/07/12 05:26:37;;;;;;;;;;;;;;;23.73;100.00;99478.81;5072728;28;19925;-79
2022/07/12 05:29:04;;;;;;;;;;;;;;;23.49;100.00;99472.59;5072686;28;19926;-80
2022/07/12 05:31:31;;;;;;;;;;;;;;;23.00;100.00;99487.78;5072741;28;19924;-80
2022/07/12 05:33:59;;;;;;;;;;;;;;;23.09;100.00;99496.97;5054640;28;19925;-79
2022/07/12 05:36:26;;;;;;;;;;;;;;;23.46;100.00;99485.00;5072676;28;19932;-79
2022/07/12 05:38:53;;;;;;;;;;;;;;;23.28;100.00;99483.22;5071378;28;20299;-79
2022/07/12 05:41:20;;;;;;;;;;;;;;;23.28;100.00;99483.22;5072591;28;19974;-79
2022/07/12 05:43:47;;;;;;;;;;;;;;;23.54;100.00;99489.75;5073345;28;19930;-79
2022/07/12 05:46:15;;;;;;;;;;;;;;;23.55;100.00;99476.28;5075303;28;20402;-79
2022/07/12 05:48:42;;;;;;;;;;;;;;;23.70;100.00;99476.97;5058392;28;20024;-80
2022/07/12 05:53:55;;;;;;;;;;;;;;;23.47;100.00;99504.47;5076430;28;19925;-79
2022/07/12 05:56:22;;;;;;;;;;;;;;;23.54;100.00;99497.56;5075068;28;19924;-79
2022/07/12 05:58:50;;;;;;;;;;;;;;;23.52;100.00;99495.22;5076173;28;19928;-79
2022/07/12 06:01:18;;;;;;;;;;;;;;;23.51;100.00;99498.56;5074769;28;19924;-79
2022/07/12 06:03:45;;;;;;;;;;;;;;;23.23;100.00;99497.41;5076144;28;19947;-79
2022/07/12 06:06:12;;;;;;;;;;;;;;;23.60;100.00;99490.59;5074820;28;19925;-79
2022/07/12 06:08:39;;;;;;;;;;;;;;;23.57;100.00;99502.25;5074867;28;19925;-79
2022/07/12 06:11:06;;;;;;;;;;;;;;;23.62;100.00;99510.06;5074915;28;19978;-79
2022/07/12 06:13:33;;;;;;;;;;;;;;;23.55;100.00;99505.63;5075950;28;19931;-79
2022/07/12 06:16:01;;;;;;;;;;;;;;;23.46;100.00;99513.53;5074171;28;19928;-79
2022/07/12 06:18:28;;;;;;;;;;;;;;;23.56;100.00;99517.78;5075914;28;20023;-79
2022/07/12 06:20:55;;;;;;;;;;;;;;;23.63;100.00;99511.66;5075904;28;19932;-79
2022/07/12 06:23:22;;;;;;;;;;;;;;;23.57;100.00;99519.38;5075839;28;20376;-79
2022/07/12 06:25:49;;;;;;;;;;;;;;;23.13;100.00;99517.50;5075894;28;20402;-79
2022/07/12 06:28:21;;;;;;;;;;;;;;;23.55;100.00;99519.06;5075830;28;20011;-79
2022/07/12 06:30:50;;;;;;;;;;;;;;;23.79;100.00;99511.84;5074412;28;19928;-79
2022/07/12 06:33:17;;;;;;;;;;;;;;;23.33;100.00;99527.34;5074386;28;20372;-79
2022/07/12 06:35:44;;;;;;;;;;;;;;;23.45;100.00;99523.34;5074193;28;20268;-80
2022/07/12 06:38:11;;;;;;;;;;;;;;;23.52;100.00;99528.63;5075842;28;19924;-79
2022/07/12 06:40:39;;;;;;;;;;;;;;;23.68;100.00;99531.69;5074214;28;19925;-79
2022/07/12 06:43:10;;;;;;;;;;;;;;;23.71;100.00;99524.19;5074346;28;19925;-79
2022/07/12 06:45:37;;;;;;;;;;;;;;;23.63;100.00;99532.38;5075095;28;19925;-79
2022/07/12 06:48:05;;;;;;;;;;;;;;;23.63;100.00;99531.63;5074500;28;19924;-79
2022/07/12 06:50:33;;;;;;;;;;;;;;;23.79;100.00;99531.03;5074076;28;20336;-79
2022/07/12 06:53:00;;;;;;;;;;;;;;;23.70;100.00;99528.31;5075210;28;20287;-79
2022/07/12 06:55:27;;;;;;;;;;;;;;;23.66;100.00;99522.81;5056942;28;20379;-79
2022/07/12 06:57:54;;;;;;;;;;;;;;;23.79;100.00;99519.59;5073904;28;19925;-79
2022/07/12 07:00:21;;;;;;;;;;;;;;;23.95;100.00;99525.50;5073670;28;20371;-79
2022/07/12 07:02:49;;;;;;;;;;;;;;;23.96;100.00;99526.31;5057109;28;20153;-78
2022/07/12 07:05:17;;;;;;;;;;;;;;;23.75;100.00;99530.47;5075075;28;20007;-78
2022/07/12 07:07:44;;;;;;;;;;;;;;;23.91;100.00;99532.69;5073832;28;20358;-78
2022/07/12 07:10:12;;;;;;;;;;;;;;;23.95;100.00;99539.78;5057353;28;19982;-78
2022/07/12 07:12:39;;;;;;;;;;;;;;;23.60;100.00;99536.25;5074882;28;19924;-79
2022/07/12 07:15:06;;;;;;;;;;;;;;;23.49;100.00;99539.00;5074400;28;19970;-77
2022/07/12 07:17:34;;;;;;;;;;;;;;;23.72;100.00;99540.03;5074846;28;19959;-78
2022/07/12 07:20:02;;;;;;;;;;;;;;;23.87;100.00;99532.16;5074624;28;20383;-78
2022/07/12 07:22:29;;;;;;;;;;;;;;;24.01;100.00;99542.69;5074790;28;20011;-78
2022/07/12 07:24:56;;;;;;;;;;;;;;;23.71;100.00;99553.50;5074573;28;20042;-78
2022/07/12 07:27:23;;;;;;;;;;;;;;;23.97;100.00;99547.84;5074582;28;19930;-78
2022/07/12 07:32:35;;;;;;;;;;;;;;;24.13;100.00;99541.50;5074800;28;19958;-77
2022/07/12 07:35:05;;;;;;;;;;;;;;;24.24;100.00;99547.31;5073291;28;19982;-77
2022/07/12 07:37:33;;;;;;;;;;;;;;;24.45;100.00;99548.81;5073237;28;20299;-77
2022/07/12 07:40:00;;;;;;;;;;;;;;;24.09;100.00;99544.59;5074218;28;19924;-77
2022/07/12 07:42:27;;;;;;;;;;;;;;;24.26;100.00;99534.13;5073087;28;19924;-77
2022/07/12 07:44:54;;;;;;;;;;;;;;;24.25;100.00;99540.34;5073239;28;20371;-78
2022/07/12 07:47:45;;;;;;;;;;;;;;;24.13;100.00;99545.16;5073135;28;19924;-78
2022/07/12 07:50:33;;;;;;;;;;;;;;;24.40;100.00;99543.84;5074446;28;19925;-78
2022/07/12 07:53:00;;;;;;;;;;;;;;;24.61;100.00;99539.59;5072967;28;19946;-78
2022/07/12 07:55:29;;;;;;;;;;;;;;;24.53;100.00;99542.16;5074066;28;19925;-78
2022/07/12 07:57:59;;;;;;;;;;;;;;;24.52;100.00;99546.28;5073769;28;19924;-78
2022/07/12 08:00:26;;;;;;;;;;;;;;;24.36;100.00;99549.00;5074008;28;20334;-78
2022/07/12 08:02:55;;;;;;;;;;;;;;;24.59;100.00;99557.25;5073925;28;19931;-78
2022/07/12 08:05:22;;;;;;;;;;;;;;;24.81;100.00;99544.44;5073758;28;19936;-78
2022/07/12 08:07:53;;;;;;;;;;;;;;;24.80;100.00;99543.66;5073790;28;19924;-78
2022/07/12 08:10:21;;;;;;;;;;;;;;;24.45;100.00;99543.88;5072448;28;19925;-79
2022/07/12 08:12:48;;;;;;;;;;;;;;;24.43;100.00;99559.97;5069701;28;20325;-77
2022/07/12 08:15:15;;;;;;;;;;;;;;;24.41;100.00;99565.41;5038483;28;19928;-77
2022/07/12 08:17:42;;;;;;;;;;;;;;;24.46;100.00;99564.69;5072752;28;19928;-78
2022/07/12 08:20:12;;;;;;;;;;;;;;;24.52;100.00;99571.97;5090233;28;19928;-78
2022/07/12 08:22:53;;;;;;;;;;;;;;;24.88;100.00;99564.78;5092337;28;19924;-78
2022/07/12 08:25:21;;;;;;;;;;;;;;;24.88;100.00;99561.91;5090683;28;19924;-78
2022/07/12 08:27:48;;;;;;;;;;;;;;;25.07;100.00;99565.16;5092378;28;19924;-78
2022/07/12 08:30:16;;;;;;;;;;;;;;;24.81;100.00;99559.50;5092766;28;20374;-78
2022/07/12 08:32:43;;;;;;;;;;;;;;;24.89;100.00;99554.09;5092533;28;20390;-78
2022/07/12 08:35:11;;;;;;;;;;;;;;;25.08;100.00;99547.50;5093551;28;19931;-78
2022/07/12 08:37:38;;;;;;;;;;;;;;;25.10;100.00;99547.00;5092355;28;19931;-78
2022/07/12 08:40:05;;;;;;;;;;;;;;;25.41;100.00;99546.91;5093517;28;19965;-78
2022/07/12 08:42:33;;;;;;;;;;;;;;;25.55;100.00;99543.06;5093148;28;20030;-78
2022/07/12 08:45:00;;;;;;;;;;;;;;;25.42;100.00;99540.66;5093462;28;19924;-78
2022/07/12 08:47:27;;;;;;;;;;;;;;;25.51;100.00;99537.59;5092411;28;19977;-79
2022/07/12 08:50:16;;;;;;;;;;;;;;;25.69;100.00;99528.53;5093431;28;19931;-78
2022/07/12 08:52:45;;;;;;;;;;;;;;;25.57;100.00;99523.28;5077952;28;19931;-79
2022/07/12 08:55:17;;;;;;;;;;;;;;;25.54;100.00;99530.84;5073655;28;19959;-78
2022/07/12 08:57:45;;;;;;;;;;;;;;;25.77;100.00;99532.47;5071606;28;20502;-78
2022/07/12 09:00:13;;;;;;;;;;;;;;;26.02;100.00;99537.25;5073429;28;19932;-79
2022/07/12 09:02:58;;;;;;;;;;;;;;;26.06;100.00;99537.78;5072169;28;19925;-78
2022/07/12 09:05:27;;;;;;;;;;;;;;;25.91;100.00;99534.34;5073401;28;20359;-78
2022/07/12 09:08:05;;;;;;;;;;;;;;;26.14;100.00;99544.53;5073264;28;19978;-78
2022/07/12 09:10:32;;;;;;;;;;;;;;;25.96;100.00;99545.00;5080285;28;20366;-79
2022/07/12 09:13:00;;;;;;;;;;;;;;;25.95;100.00;99546.31;5093530;28;19924;-78
2022/07/12 09:15:27;;;;;;;;;;;;;;;26.21;100.00;99552.66;5092187;28;19928;-78
2022/07/12 09:18:02;;;;;;;;;;;;;;;26.13;100.00;99560.16;5097197;28;19959;-78
2022/07/12 09:20:30;;;;;;;;;;;;;;;25.94;100.00;99561.94;5100079;28;19924;-78
2022/07/12 09:22:58;;;;;;;;;;;;;;;26.03;100.00;99550.28;5099985;28;19939;-78
2022/07/12 09:25:25;;;;;;;;;;;;;;;26.01;100.00;99554.94;5098537;28;20393;-77
2022/07/12 09:27:54;;;;;;;;;;;;;;;25.98;100.00;99548.16;5100116;28;20002;-78
2022/07/12 09:30:23;;;;;;;;;;;;;;;25.89;100.00;99554.09;5100321;28;19928;-78
2022/07/12 09:38:26;;;;;;;;;;;;;;;26.36;100.00;99538.84;5085759;28;19928;-78
2022/07/12 09:40:54;;;;;;;;;;;;;;;25.76;100.00;99542.38;5079349;28;19947;-78
2022/07/12 09:43:21;;;;;;;;;;;;;;;25.76;100.00;99548.09;5079349;28;19932;-78
2022/07/12 09:45:49;;;;;;;;;;;;;;;26.04;100.00;99551.81;5078339;28;19924;-78
2022/07/12 09:48:17;;;;;;;;;;;;;;;25.85;100.00;99544.19;5095555;28;20011;-78
2022/07/12 09:50:48;;;;;;;;;;;;;;;26.40;100.00;99550.81;5099874;28;20373;-78
2022/07/12 09:53:21;;;;;;;;;;;;;;;26.59;100.00;99556.03;5071316;28;19932;-78
2022/07/12 09:55:50;;;;;;;;;;;;;;;26.50;100.00;99548.50;5076334;28;19925;-78
2022/07/12 09:58:27;;;;;;;;;;;;;;;26.22;100.00;99544.81;5078317;28;19946;-78
2022/07/12 10:00:55;;;;;;;;;;;;;;;26.34;100.00;99550.03;5077773;28;19931;-78
2022/07/12 10:03:25;;;;;;;;;;;;;;;26.80;100.00;99540.94;5111700;28;19924;-77
2022/07/12 10:05:52;;;;;;;;;;;;;;;26.69;100.00;99557.38;5077842;28;20344;-77
2022/07/12 10:08:20;;;;;;;;;;;;;;;26.68;100.00;99576.66;5078840;28;20011;-78
2022/07/12 10:10:51;;;;;;;;;;;;;;;26.55;100.00;99584.19;5079157;28;19964;-78
2022/07/12 10:13:19;;;;;;;;;;;;;;;25.89;100.00;99597.03;5077929;28;19924;-78
2022/07/12 10:15:48;;;;;;;;;;;;;;;26.19;100.00;99598.19;5077805;28;19930;-78
2022/07/12 10:18:21;;;;;;;;;;;;;;;25.70;100.00;99595.94;5079049;28;20394;-78
2022/07/12 10:20:48;;;;;;;;;;;;;;;26.00;100.00;99591.41;5078944;28;19925;-78
2022/07/12 10:23:18;;;;;;;;;;;;;;;26.23;100.00;99580.75;5077389;28;19972;-78
2022/07/12 10:25:48;;;;;;;;;;;;;;;26.16;100.00;99564.06;5079032;28;20019;-78
2022/07/12 10:28:15;;;;;;;;;;;;;;;25.76;100.00;99571.00;5060764;28;20037;-78
2022/07/12 10:30:45;;;;;;;;;;;;;;;26.03;100.00;99573.19;5074131;28;19930;-78
2022/07/12 10:33:15;;;;;;;;;;;;;;;26.16;100.00;99581.25;5075792;28;19931;-78
2022/07/12 10:35:57;;;;;;;;;;;;;;;25.98;100.00;99593.97;5074487;28;19925;-78
2022/07/12 10:38:25;;;;;;;;;;;;;;;26.27;100.00;99590.66;5075386;28;19925;-78
2022/07/12 10:40:53;;;;;;;;;;;;;;;26.24;100.00;99590.91;5074403;28;19947;-78
2022/07/12 10:46:19;;;;;;;;;;;;;;;26.54;100.00;99591.97;5074467;28;20389;-78
2022/07/12 10:48:47;;;;;;;;;;;;;;;26.23;100.00;99583.63;5075524;28;19924;-78
2022/07/12 10:51:15;;;;;;;;;;;;;;;26.45;100.00;99593.03;5075133;28;20379;-77
2022/07/12 10:53:44;;;;;;;;;;;;;;;25.90;100.00;99597.84;5075328;28;20015;-78
2022/07/12 10:56:22;;;;;;;;;;;;;;;26.24;100.00;99596.63;5075245;28;19924;-78
2022/07/12 10:58:56;;;;;;;;;;;;;;;25.71;100.00;99597.50;5074249;28;19930;-77
2022/07/12 11:01:23;;;;;;;;;;;;;;;26.20;100.00;99587.53;5075195;28;19925;-78
2022/07/12 11:03:54;;;;;;;;;;;;;;;25.91;100.00;99588.72;5075266;28;19931;-78
2022/07/12 11:06:22;;;;;;;;;;;;;;;26.51;100.00;99572.22;5073839;28;19931;-78
2022/07/12 11:08:49;;;;;;;;;;;;;;;26.49;100.00;99575.59;5057174;28;20013;-78
2022/07/12 11:11:17;;;;;;;;;;;;;;;26.66;100.00;99578.50;5073841;28;19924;-78
2022/07/12 11:13:44;;;;;;;;;;;;;;;26.82;100.00;99577.69;5074939;28;20398;-78
2022/07/12 11:16:12;;;;;;;;;;;;;;;26.32;100.00;99578.41;5074782;28;20294;-77
2022/07/12 11:18:39;;;;;;;;;;;;;;;26.45;100.00;99580.78;5074982;28;20011;-78
2022/07/12 11:21:06;;;;;;;;;;;;;;;26.15;100.00;99591.94;5074479;28;19928;-77
2022/07/12 11:23:33;;;;;;;;;;;;;;;26.44;100.00;99585.75;5074829;28;20383;-78
2022/07/12 11:26:00;;;;;;;;;;;;;;;26.36;100.00;99586.75;5074765;28;19925;-77
2022/07/12 11:28:28;;;;;;;;;;;;;;;26.32;100.00;99589.09;5074608;28;19924;-77
2022/07/12 11:31:06;;;;;;;;;;;;;;;26.02;100.00;99580.19;5075010;28;19947;-78
2022/07/12 11:33:34;;;;;;;;;;;;;;;26.30;100.00;99592.50;5074683;28;20375;-78
2022/07/12 11:36:03;;;;;;;;;;;;;;;26.20;100.00;99608.34;5074242;28;19964;-77
2022/07/12 11:38:30;;;;;;;;;;;;;;;26.32;100.00;99601.34;5074643;28;19925;-78
2022/07/12 11:41:02;;;;;;;;;;;;;;;26.31;100.00;99596.13;5073277;28;19924;-78
2022/07/12 11:43:30;;;;;;;;;;;;;;;26.41;100.00;99588.88;5090211;28;19925;-78
2022/07/12 11:45:57;;;;;;;;;;;;;;;26.61;100.00;99588.63;5073140;28;19931;-77
2022/07/12 11:48:24;;;;;;;;;;;;;;;26.57;100.00;99570.13;5074073;28;19932;-77
2022/07/12 11:50:55;;;;;;;;;;;;;;;26.51;100.00;99572.97;5072841;28;20050;-77
2022/07/12 11:53:26;;;;;;;;;;;;;;;26.54;100.00;99588.38;5074228;28;19925;-78
2022/07/12 11:55:55;;;;;;;;;;;;;;;26.77;100.00;99584.19;5074030;28;20384;-78
2022/07/12 11:58:23;;;;;;;;;;;;;;;26.21;100.00;99594.81;5074144;28;19925;-77
2022/07/12 12:00:52;;;;;;;;;;;;;;;26.36;100.00;99601.88;5072791;28;19928;-78
2022/07/12 12:03:20;;;;;;;;;;;;;;;26.65;100.00;99605.56;5073968;28;20133;-77
2022/07/12 12:05:48;;;;;;;;;;;;;;;26.74;100.00;99606.09;5072453;28;19933;-78
2022/07/12 12:08:16;;;;;;;;;;;;;;;26.65;100.00;99622.75;5072595;28;19929;-78
2022/07/12 12:10:52;;;;;;;;;;;;;;;26.69;100.00;99611.84;5072645;28;20007;-78
2022/07/12 12:13:19;;;;;;;;;;;;;;;26.74;100.00;99602.44;5072556;28;19924;-78
2022/07/12 12:16:05;;;;;;;;;;;;;;;26.67;100.00;99614.44;5072364;28;19924;-78
2022/07/12 12:18:34;;;;;;;;;;;;;;;26.35;100.00;99628.94;5072367;28;20375;-78
2022/07/12 12:21:06;;;;;;;;;;;;;;;26.23;100.00;99624.50;5072345;28;19931;-78
2022/07/12 12:23:33;;;;;;;;;;;;;;;26.26;100.00;99629.19;5072507;28;19924;-78
2022/07/12 12:26:20;;;;;;;;;;;;;;;25.89;100.00;99625.66;5073550;28;19924;-78
2022/07/12 12:28:49;;;;;;;;;;;;;;;25.39;100.00;99633.22;5073644;28;19925;-78
2022/07/12 12:31:17;;;;;;;;;;;;;;;25.83;100.00;99638.38;5073538;28;20011;-78
2022/07/12 12:33:46;;;;;;;;;;;;;;;25.88;100.00;99624.13;5073119;28;20120;-78
2022/07/12 12:36:17;;;;;;;;;;;;;;;26.15;100.00;99612.00;5073301;28;19925;-78
2022/07/12 12:38:46;;;;;;;;;;;;;;;25.86;100.00;99608.75;5072214;28;19982;-78
2022/07/12 12:41:13;;;;;;;;;;;;;;;25.81;100.00;99620.97;5072037;28;19932;-78
2022/07/12 12:43:41;;;;;;;;;;;;;;;25.85;100.00;99612.91;5073370;28;19970;-78
2022/07/12 12:46:08;;;;;;;;;;;;;;;25.98;100.00;99602.56;5073166;28;20429;-78
2022/07/12 12:48:35;;;;;;;;;;;;;;;26.00;100.00;99590.59;5072836;28;20042;-78
2022/07/12 12:51:10;;;;;;;;;;;;;;;26.41;100.00;99581.06;5073222;28;19932;-78
2022/07/12 12:53:40;;;;;;;;;;;;;;;26.96;100.00;99568.03;5072797;28;19925;-78
2022/07/12 12:56:09;;;;;;;;;;;;;;;26.73;100.00;99583.69;5055254;28;19928;-78